Bentonville, Indiana
Current Conditions -  °F | °C
As of 4:53 PM on Friday 31 Oct 2014 (Local Time) from KGEZ Reporting Station
Overcast Overcast  
Wind Chill: 30°   Ceiling: 1900
Heat Index: 39°   Visibility: 10mi
Dew Point: 33°   Wind: 16mph
Humidity: 79%   Direction: 300°WNW
Pressure: 29.97"   Gusts: NA
Location:  39.75°N, 85.19°W
Report Text: KGEZ 312053Z AUTO 30014KT 10SM OVC019 04/01 A2997 RMK AO2 PK WND 32026/2018 RAB29E39 SLP152 P0000 60000 T00390006 55003
Loading
Personal Weather Stations






























Interactive Weather Map
Tropical Storm Tracking
New forecast layout! Learn more

10-Day Weather Forecast

Advertisements
Track Severe Weather on mobile